Phoenix (PHX/KPHX)

Information

Location
Phoenix, AZ
Local Time
17:22 / 5:22 pm
GMT Time
00:22 / 12:22 am
Gates
Unassigned
No FAA reported delays
METAR KPHX 222351Z 27006KT 10SM FEW090 SCT150 BKN250 24/07 A2982 RMK AO2 SLP087 T02440067 10250 20200 56026
TAF KPHX 222328Z 2300/2324 27008KT P6SM SCT150 BKN250 FM231400 24005KT P6SM SCT250 FM232000 27012KT P6SM SKC
  • No charts available